Airfield :
LOGIN :

Register | Disclaimer

   EN    FR    IT 

 










Legend :    VFR   Marginal VFR   IFR   Intensive IFR   Very Intensive IFR
Visi :
Ceiling :
>= 8 km
>= 3000ft
5 to 8 km
1000 to 3000 ft
1500m to 5 km
500 to 1000 ft
800 to 1500m
200 to 500 ft
< 800m
< 200 ft
Symbols :   Thunderstorms  Fog  Heavy snow  Heavy precipitations  Wind > 20 kt
SIGMETs :     Misc.  Thunderstorms  Icing  Turbulence  Mountain Waves  Volcanic Ashes






- Airport Elevation : 24 ft
- IATA code : IBZ


LEIB - Ibiza

CURRENT METAR :
  • 011230Z 11010KT 070V150 9999 FEW035 26/17 Q1015 NOSIG

EXPIRED METARs :
  • 011200Z 13009KT 080V170 9999 FEW035 27/16 Q1015 NOSIG
  • 011130Z VRB05G15KT 9999 FEW035 27/16 Q1015 NOSIG
  • 011100Z VRB04KT 9999 FEW035 26/15 Q1015 NOSIG
  • 011030Z 19007KT 140V230 9999 FEW036 27/16 Q1015 NOSIG
  • 011000Z VRB06KT 9999 FEW025 26/16 Q1016 NOSIG
  • 010930Z 16005KT 100V240 9999 FEW025 27/16 Q1015 NOSIG

TAF TAF LEIB
Valid from the 01 at 09:00 until the 02 at 09:00 UTC


010800Z 0109/0209 36008KT 9999 FEW020 TX27/0112Z TN21/0205Z
BECMG 0112/0114 08012KT
TEMPO 0114/0117 08015G25KT
BECMG 0120/0122 06005KT
BECMG 0206/0208 08010KT



MET'MAP, your aeronautical weather chart ! - Copyright ORBIFLY December 2007 - Disclaimer

ORBIFLY MET'MAP TEAM :

Programming & Development : Alexandra Zaïnal
Concept & original design : Baudouin d'Aumeries
Assistance for programming : Marc-Olivier Méhu
Technical & hardware support : Manuel Goepfert

Contact : metmap@orbifly.com




SOURCES & CREDITS :

   NOAA